Terminal Aerodrome Forecast
Issued by NWS

Home | Current Version | Previous Version | Text Only | Print | Product List | Glossary Off
Versions: 1 2 3 4 5 6 7 8 9 10 11 12 13 14 15 16 17 18

437
FTUS43 KIWX 071724
TAFSBN
TAF
KSBN 071724Z 0718/0818 22020G25KT P6SM BKN150
     FM072200 24006KT P6SM BKN050
     FM081000 27006KT 4SM BR OVC020=

USA.gov is the U.S. government's official web portal to all federal, state and local government web resources and services.